Elon, NC

15:05 EST le 24 novembre 2014 (GMT -0500)
Burlington-Alamance Regional | Change Station
CLOSE
Current Station
Aéroport
Location: Burlington,
Altitude: 617 ft
Stations météo à proximité

Alt. 617 ft 36.05 °N, 79.47 °W | Updated 1 hour ago

Nuageux
Nuageux
71 ° F
Paraît 71 ° F
N
15
Vent Variable Vent de Sud
Gusts 20 mph

Aujourd'hui
Haut(e) -- | Bas -- ° F
--% Risque de précip.
Hier
Haut(e) -- | Bas -- ° F
Precip. -- pouce
7:03 AM 5:05 PM
Lune montante, 7% visible
Pression 29.73 pouce
Visibilité 10.0 Miles terrestres
Nuages Nuageux 11000 ft
Point de rosée 56 ° F
Humidité 59%
Précipitations 0.00 pouce
Profondeur de la couche neigeuse Non disponible.
UV 1 sur 12
Pollen .50 sur 12
Qualité de l'air Non disponible.
Flu Activity Non disponible.
METAR KBUY 241854Z AUTO 19013G17KT 10SM BKN110 22/13 A2975 RMK AO2 PK WND 20026/1800 SLP068 T02170133

More Conditions Fewer Conditions

Pression 29.73 pouce
Visibilité 10.0 Miles terrestres
Nuages Nuageux 11000 ft
Point de rosée 56 ° F
Humidité 59%
Précipitations 0.00 pouce
Profondeur de la couche neigeuse Non disponible.
UV 1 sur 12
Pollen .50 sur 12
Qualité de l'air Non disponible.
Flu Activity Non disponible.
METAR KBUY 241854Z AUTO 19013G17KT 10SM BKN110 22/13 A2975 RMK AO2 PK WND 20026/1800 SLP068 T02170133

More Conditions Fewer Conditions

10-Day Weather Forecast

Almanac

Astronomie

Nov. 24, 2014 Lever Coucher
Temps réel
Crépuscule civil
Crépuscule nautique
Crépuscule astronomique
Lune
Durée de lumière visible
Longueur du jour
Tomorrow will be .
, % of the Moon is Illuminated

Extrêmes aujourd'hui

State Highs State Lows

Community

WunderPhotos

Upload Photos

1,773,401 Photos téléchargées !

WunderBlogs® & News

Nearby

Qualité de l'air

  Qualité de l'air Indice de la qualité de l'air Polluant
Not available.

Épaisseur de neige

Station Depth Altitude

Activité sismique

Ville Distance Mag. Time & Date
Minimum magnitude displayed is 2.5.

Températures des eaux côtières

Lieu Température

Stations météo à proximité